createdAt,value
2022-08-16T00:02:59.125Z,21.60
2022-08-16T00:08:01.262Z,21.50
2022-08-16T00:13:08.763Z,21.30
2022-08-16T00:18:11.099Z,21.30
2022-08-16T00:23:13.374Z,21.20
2022-08-16T00:28:17.689Z,21.10
2022-08-16T00:33:19.516Z,21.10
2022-08-16T00:38:41.028Z,21.00
2022-08-16T00:43:45.772Z,20.90
2022-08-16T00:48:51.334Z,20.90
2022-08-16T00:53:54.423Z,20.90
2022-08-16T00:58:56.361Z,21.00
2022-08-16T01:03:59.134Z,21.00
2022-08-16T01:09:06.109Z,21.00
2022-08-16T01:14:13.726Z,21.00
2022-08-16T01:19:25.122Z,21.00
2022-08-16T01:24:52.920Z,21.00
2022-08-16T01:30:32.141Z,21.10
2022-08-16T01:35:52.551Z,21.10
2022-08-16T01:41:08.045Z,21.20
2022-08-16T01:46:39.681Z,21.20
2022-08-16T01:51:44.145Z,21.30
2022-08-16T01:56:46.136Z,21.30
2022-08-16T02:01:59.858Z,21.30
2022-08-16T02:07:08.438Z,21.30
2022-08-16T02:12:51.681Z,21.20
2022-08-16T02:17:35.980Z,21.10
2022-08-16T02:22:38.320Z,21.00
2022-08-16T02:27:41.250Z,20.90
2022-08-16T02:32:49.747Z,20.80
2022-08-16T02:37:56.101Z,20.80
2022-08-16T02:42:58.204Z,20.70
2022-08-16T02:48:29.434Z,20.60
2022-08-16T02:53:24.987Z,20.60
2022-08-16T02:58:29.093Z,20.50
2022-08-16T03:04:29.170Z,20.40
2022-08-16T03:08:53.977Z,20.40
2022-08-16T03:13:56.751Z,20.30
2022-08-16T03:18:58.814Z,20.20
2022-08-16T03:24:03.974Z,20.20
2022-08-16T03:29:05.916Z,20.20
2022-08-16T03:34:09.511Z,20.20
2022-08-16T03:39:20.501Z,20.10
2022-08-16T03:44:43.253Z,20.10
2022-08-16T03:49:44.429Z,20.10
2022-08-16T03:54:53.199Z,20.10
2022-08-16T03:59:56.141Z,20.10
2022-08-16T04:04:57.982Z,20.10
2022-08-16T04:10:00.166Z,20.10
2022-08-16T04:15:22.257Z,20.00
2022-08-16T04:20:34.001Z,20.10
2022-08-16T04:25:39.156Z,20.10
2022-08-16T04:30:42.516Z,20.10
2022-08-16T04:35:49.613Z,20.20
2022-08-16T04:40:51.898Z,20.20
2022-08-16T04:46:00.675Z,20.20
2022-08-16T04:51:07.871Z,20.30
2022-08-16T04:56:14.575Z,20.30
2022-08-16T05:01:19.626Z,20.40
2022-08-16T05:06:21.784Z,20.40
2022-08-16T05:11:43.652Z,20.60
2022-08-16T05:16:45.676Z,20.70
2022-08-16T05:21:47.559Z,20.80
2022-08-16T05:26:51.345Z,21.00
2022-08-16T05:31:54.103Z,21.30
2022-08-16T05:36:57.463Z,21.50
2022-08-16T05:42:00.836Z,21.80
2022-08-16T05:47:02.945Z,22.20
2022-08-16T05:52:05.765Z,22.40
2022-08-16T05:57:13.566Z,22.50
2022-08-16T06:02:17.593Z,22.50
2022-08-16T06:07:26.418Z,22.50
2022-08-16T06:12:29.827Z,22.90
2022-08-16T06:17:42.274Z,23.60
2022-08-16T06:22:47.811Z,24.20
2022-08-16T06:27:59.923Z,24.70
2022-08-16T06:33:03.838Z,25.30
2022-08-16T06:38:05.932Z,25.20
2022-08-16T06:43:27.891Z,25.20
2022-08-16T06:48:32.506Z,25.10
2022-08-16T06:53:36.753Z,25.10
2022-08-16T06:58:38.918Z,25.00
2022-08-16T07:03:55.958Z,24.70
2022-08-16T07:09:15.898Z,24.40
2022-08-16T07:14:26.427Z,24.10
2022-08-16T07:20:03.185Z,24.10
2022-08-16T07:25:01.027Z,24.80
2022-08-16T07:30:38.556Z,26.00
2022-08-16T07:35:30.299Z,26.80
2022-08-16T07:40:59.139Z,27.40
2022-08-16T07:45:59.526Z,27.80
2022-08-16T07:51:08.869Z,28.40
2022-08-16T07:56:10.974Z,29.00
2022-08-16T08:01:14.978Z,29.40
2022-08-16T08:06:20.114Z,29.50
2022-08-16T08:11:24.357Z,30.00
2022-08-16T08:16:31.651Z,30.60
2022-08-16T08:21:58.461Z,30.90
2022-08-16T08:26:59.252Z,31.00
2022-08-16T08:32:01.277Z,31.00
2022-08-16T08:37:03.365Z,31.20
2022-08-16T08:42:06.793Z,31.40
2022-08-16T08:47:15.753Z,31.60
2022-08-16T08:52:34.217Z,32.00
2022-08-16T08:57:42.230Z,32.30
2022-08-16T09:02:45.660Z,32.30
2022-08-16T09:08:01.539Z,32.40
2022-08-16T09:13:17.200Z,32.60
2022-08-16T09:18:26.734Z,33.00
2022-08-16T09:23:36.213Z,33.30
2022-08-16T09:29:17.125Z,33.30
2022-08-16T09:34:03.154Z,33.60
2022-08-16T09:39:05.094Z,33.80
2022-08-16T09:45:13.092Z,33.80
2022-08-16T09:49:45.356Z,33.90
2022-08-16T09:54:54.625Z,33.80
2022-08-16T09:59:57.467Z,34.20
2022-08-16T10:05:00.089Z,34.20
2022-08-16T10:10:07.464Z,34.30
2022-08-16T10:15:21.211Z,34.40
2022-08-16T10:20:25.841Z,34.60
2022-08-16T10:27:17.613Z,34.70
2022-08-16T10:30:56.317Z,34.70
2022-08-16T10:36:04.317Z,34.80
2022-08-16T10:41:07.519Z,35.10
2022-08-16T10:46:40.135Z,35.30
2022-08-16T10:52:00.853Z,35.40
2022-08-16T10:56:57.206Z,35.60
2022-08-16T11:19:06.377Z,35.80
2022-08-16T11:24:39.649Z,35.30
2022-08-16T11:29:36.781Z,35.30
2022-08-16T11:35:05.710Z,35.30
2022-08-16T11:40:06.526Z,35.50
2022-08-16T11:45:11.541Z,35.50
2022-08-16T11:50:14.380Z,35.40
2022-08-16T11:55:16.527Z,35.60
2022-08-16T12:00:37.538Z,35.60
2022-08-16T12:05:44.052Z,35.40
2022-08-16T12:10:46.639Z,35.30
2022-08-16T12:15:49.231Z,35.10
2022-08-16T12:20:59.940Z,35.30
2022-08-16T12:26:02.191Z,35.30
2022-08-16T12:31:13.427Z,35.40
2022-08-16T12:36:17.661Z,35.70
2022-08-16T12:41:25.168Z,35.60
2022-08-16T12:46:30.929Z,35.50
2022-08-16T12:51:59.788Z,35.40
2022-08-16T12:57:01.367Z,35.40
2022-08-16T13:02:04.355Z,35.20
2022-08-16T13:07:08.578Z,35.10
2022-08-16T13:12:23.756Z,35.20
2022-08-16T13:17:29.541Z,35.20
2022-08-16T13:22:44.296Z,35.20
2022-08-16T13:28:01.508Z,35.10
2022-08-16T13:33:17.028Z,34.90
2022-08-16T13:38:25.132Z,35.10
2022-08-16T13:43:32.474Z,35.20
2022-08-16T13:48:43.230Z,35.20
2022-08-16T13:53:54.951Z,35.00
2022-08-16T13:59:19.431Z,35.00
2022-08-16T14:04:26.644Z,34.80
2022-08-16T14:09:30.374Z,34.50
2022-08-16T14:14:39.337Z,34.40
2022-08-16T14:19:45.144Z,34.30
2022-08-16T14:25:00.913Z,34.30
2022-08-16T14:30:15.599Z,34.30
2022-08-16T14:35:36.389Z,34.30
2022-08-16T14:40:38.887Z,34.20
2022-08-16T14:45:41.405Z,34.30
2022-08-16T14:51:11.046Z,34.10
2022-08-16T14:56:17.523Z,33.90
2022-08-16T15:01:59.341Z,33.90
2022-08-16T15:06:58.493Z,33.80
2022-08-16T15:12:27.009Z,33.60
2022-08-16T15:17:34.041Z,33.40
2022-08-16T15:22:46.736Z,33.20
2022-08-16T15:27:55.343Z,33.10
2022-08-16T15:33:18.588Z,33.00
2022-08-16T15:38:57.436Z,32.80
2022-08-16T15:43:48.452Z,32.60
2022-08-16T15:49:07.562Z,32.30
2022-08-16T15:54:29.057Z,32.10
2022-08-16T15:59:48.226Z,31.90
2022-08-16T16:04:54.145Z,31.70
2022-08-16T16:09:56.048Z,31.60
2022-08-16T16:15:04.672Z,31.40
2022-08-16T16:20:14.529Z,31.20
2022-08-16T16:25:19.302Z,31.00
2022-08-16T16:30:37.210Z,30.90
2022-08-16T16:35:47.865Z,30.70
2022-08-16T16:41:09.910Z,30.60
2022-08-16T16:46:40.849Z,30.40
2022-08-16T16:51:40.677Z,30.30
2022-08-16T16:56:45.933Z,30.20
2022-08-16T17:02:38.403Z,30.00
2022-08-16T17:07:26.651Z,30.00
2022-08-16T17:12:47.177Z,29.80
2022-08-16T17:18:01.746Z,29.70
2022-08-16T17:23:05.029Z,29.60
2022-08-16T17:28:58.132Z,29.50
2022-08-16T17:33:36.904Z,29.30
2022-08-16T17:38:43.887Z,29.10
2022-08-16T17:43:46.793Z,29.00
2022-08-16T17:48:50.088Z,28.80
2022-08-16T17:53:53.752Z,28.70
2022-08-16T17:58:55.819Z,28.60
2022-08-16T18:04:09.256Z,28.40
2022-08-16T18:09:13.242Z,28.20
2022-08-16T18:14:19.662Z,28.10
2022-08-16T18:19:41.573Z,27.90
2022-08-16T18:24:43.548Z,27.80
2022-08-16T18:29:47.287Z,27.70
2022-08-16T18:34:54.689Z,27.50
2022-08-16T18:39:56.936Z,27.40
2022-08-16T18:45:02.208Z,27.40
2022-08-16T18:50:04.525Z,27.30
2022-08-16T18:55:14.484Z,27.20
2022-08-16T19:00:29.171Z,27.00
2022-08-16T19:05:56.677Z,26.90
2022-08-16T19:10:58.587Z,26.80
2022-08-16T19:16:01.743Z,26.70
2022-08-16T19:21:04.360Z,26.60
2022-08-16T19:26:10.924Z,26.50
2022-08-16T19:31:32.106Z,26.40
2022-08-16T19:36:37.202Z,26.20
2022-08-16T19:41:42.720Z,26.00
2022-08-16T19:46:46.535Z,25.90
2022-08-16T19:52:24.539Z,25.90
2022-08-16T19:57:26.673Z,25.80
2022-08-16T20:02:36.648Z,25.90
2022-08-16T20:07:38.750Z,25.90
2022-08-16T20:12:43.003Z,25.90
2022-08-16T20:18:02.364Z,25.80
2022-08-16T20:23:24.471Z,25.80
2022-08-16T20:28:49.987Z,25.80
2022-08-16T20:33:54.183Z,25.80
2022-08-16T20:38:59.774Z,25.70
2022-08-16T20:44:01.658Z,25.70
2022-08-16T20:49:04.484Z,25.70
2022-08-16T20:54:10.979Z,25.60
2022-08-16T20:59:17.038Z,25.60
2022-08-16T21:04:24.581Z,25.50
2022-08-16T21:09:28.851Z,25.40
2022-08-16T21:14:34.102Z,25.40
2022-08-16T21:19:38.283Z,25.40
2022-08-16T21:24:53.817Z,25.40
2022-08-16T21:29:57.725Z,25.40
2022-08-16T21:35:12.112Z,25.30
2022-08-16T21:40:14.267Z,25.20
2022-08-16T21:45:16.336Z,25.20
2022-08-16T21:50:34.328Z,25.10
2022-08-16T21:55:38.211Z,25.10
2022-08-16T22:00:41.688Z,25.00
2022-08-16T22:05:46.610Z,25.00
2022-08-16T22:11:09.391Z,25.00
2022-08-16T22:16:11.739Z,24.90
2022-08-16T22:21:13.690Z,24.70
2022-08-16T22:26:15.798Z,24.60
2022-08-16T22:31:18.343Z,24.40
2022-08-16T22:36:28.196Z,24.30
2022-08-16T22:41:32.390Z,24.10
2022-08-16T22:46:36.580Z,23.90
2022-08-16T22:51:39.462Z,23.90
2022-08-16T22:56:43.412Z,23.80
2022-08-16T23:01:45.362Z,23.70
2022-08-16T23:06:47.296Z,23.60
2022-08-16T23:11:49.202Z,23.50
2022-08-16T23:16:51.042Z,23.50
2022-08-16T23:21:53.168Z,23.40
2022-08-16T23:26:55.100Z,23.40
2022-08-16T23:32:10.746Z,23.30
2022-08-16T23:37:12.677Z,23.20
2022-08-16T23:42:15.612Z,23.10
2022-08-16T23:47:37.435Z,23.00
2022-08-16T23:53:13.454Z,23.00
2022-08-16T23:58:17.570Z,22.80
